sensor_id;sensor_type;location;lat;lon;timestamp;pressure;altitude;pressure_sealevel;temperature;humidity
4836;BME280;66719;51.226;6.902;2023-05-01T00:01:29;100951.41;;;12.00;100.00
4836;BME280;66719;51.226;6.902;2023-05-01T00:03:55;100949.84;;;11.89;100.00
4836;BME280;66719;51.226;6.902;2023-05-01T00:06:22;100951.81;;;11.77;100.00
4836;BME280;66719;51.226;6.902;2023-05-01T00:08:48;100949.28;;;11.72;100.00
4836;BME280;66719;51.226;6.902;2023-05-01T00:11:15;100944.03;;;11.72;100.00
4836;BME280;66719;51.226;6.902;2023-05-01T00:13:42;100943.22;;;11.70;100.00
4836;BME280;66719;51.226;6.902;2023-05-01T00:16:09;100934.59;;;11.64;100.00
4836;BME280;66719;51.226;6.902;2023-05-01T00:18:37;100939.78;;;11.67;100.00
4836;BME280;66719;51.226;6.902;2023-05-01T00:21:03;100930.13;;;11.69;100.00
4836;BME280;66719;51.226;6.902;2023-05-01T00:23:30;100934.59;;;11.65;100.00
4836;BME280;66719;51.226;6.902;2023-05-01T00:25:56;100929.31;;;11.67;100.00
4836;BME280;66719;51.226;6.902;2023-05-01T00:28:23;100927.63;;;11.63;100.00
4836;BME280;66719;51.226;6.902;2023-05-01T00:30:49;100922.50;;;11.56;100.00
4836;BME280;66719;51.226;6.902;2023-05-01T00:33:16;100929.56;;;11.53;100.00
4836;BME280;66719;51.226;6.902;2023-05-01T00:35:43;100925.22;;;11.52;100.00
4836;BME280;66719;51.226;6.902;2023-05-01T00:38:10;100921.97;;;11.38;100.00
4836;BME280;66719;51.226;6.902;2023-05-01T00:40:44;100924.66;;;11.35;100.00
4836;BME280;66719;51.226;6.902;2023-05-01T00:43:11;100916.84;;;11.33;100.00
4836;BME280;66719;51.226;6.902;2023-05-01T00:45:38;100919.34;;;11.38;100.00
4836;BME280;66719;51.226;6.902;2023-05-01T00:48:05;100908.06;;;11.34;100.00
4836;BME280;66719;51.226;6.902;2023-05-01T00:50:32;100913.41;;;11.28;100.00
4836;BME280;66719;51.226;6.902;2023-05-01T00:52:59;100905.63;;;11.25;100.00
4836;BME280;66719;51.226;6.902;2023-05-01T00:55:25;100900.69;;;11.08;100.00
4836;BME280;66719;51.226;6.902;2023-05-01T00:57:54;100901.78;;;10.96;100.00
4836;BME280;66719;51.226;6.902;2023-05-01T01:00:20;100902.66;;;10.95;100.00
4836;BME280;66719;51.226;6.902;2023-05-01T01:02:50;100895.81;;;10.88;100.00
4836;BME280;66719;51.226;6.902;2023-05-01T01:05:17;100899.56;;;10.72;100.00
4836;BME280;66719;51.226;6.902;2023-05-01T01:07:51;100891.69;;;10.72;100.00
4836;BME280;66719;51.226;6.902;2023-05-01T01:10:47;100888.41;;;10.61;100.00
4836;BME280;66719;51.226;6.902;2023-05-01T01:13:39;100881.44;;;10.58;100.00
4836;BME280;66719;51.226;6.902;2023-05-01T01:16:35;100883.34;;;10.48;100.00
4836;BME280;66719;51.226;6.902;2023-05-01T01:22:05;100883.25;;;10.55;100.00
4836;BME280;66719;51.226;6.902;2023-05-01T01:36:36;100867.16;;;10.25;100.00
4836;BME280;66719;51.226;6.902;2023-05-01T01:39:10;100861.78;;;10.34;100.00
4836;BME280;66719;51.226;6.902;2023-05-01T01:41:39;100856.47;;;10.37;100.00
4836;BME280;66719;51.226;6.902;2023-05-01T01:44:11;100857.50;;;10.27;100.00
4836;BME280;66719;51.226;6.902;2023-05-01T01:46:41;100856.75;;;10.17;100.00
4836;BME280;66719;51.226;6.902;2023-05-01T01:49:15;100851.53;;;10.16;100.00
4836;BME280;66719;51.226;6.902;2023-05-01T01:51:47;100850.81;;;10.08;100.00
4836;BME280;66719;51.226;6.902;2023-05-01T01:54:18;100846.59;;;9.96;100.00
4836;BME280;66719;51.226;6.902;2023-05-01T01:56:47;100845.06;;;9.80;100.00
4836;BME280;66719;51.226;6.902;2023-05-01T01:59:16;100840.59;;;9.88;100.00
4836;BME280;66719;51.226;6.902;2023-05-01T02:01:44;100838.75;;;9.96;100.00
4836;BME280;66719;51.226;6.902;2023-05-01T02:04:12;100843.84;;;10.05;100.00
4836;BME280;66719;51.226;6.902;2023-05-01T02:06:40;100842.06;;;10.09;100.00
4836;BME280;66719;51.226;6.902;2023-05-01T02:09:09;100830.81;;;10.02;100.00
4836;BME280;66719;51.226;6.902;2023-05-01T02:11:36;100835.19;;;10.02;100.00
4836;BME280;66719;51.226;6.902;2023-05-01T02:14:04;100831.88;;;9.90;100.00
4836;BME280;66719;51.226;6.902;2023-05-01T02:16:32;100822.38;;;9.83;100.00
4836;BME280;66719;51.226;6.902;2023-05-01T02:19:02;100829.25;;;9.89;100.00
4836;BME280;66719;51.226;6.902;2023-05-01T02:21:30;100818.16;;;9.73;100.00
4836;BME280;66719;51.226;6.902;2023-05-01T02:23:59;100822.50;;;9.74;100.00
4836;BME280;66719;51.226;6.902;2023-05-01T02:26:27;100810.38;;;9.69;100.00
4836;BME280;66719;51.226;6.902;2023-05-01T02:28:54;100810.41;;;9.64;100.00
4836;BME280;66719;51.226;6.902;2023-05-01T02:31:21;100814.00;;;9.58;100.00
4836;BME280;66719;51.226;6.902;2023-05-01T02:33:48;100804.50;;;9.50;100.00
4836;BME280;66719;51.226;6.902;2023-05-01T02:36:14;100801.94;;;9.45;100.00
4836;BME280;66719;51.226;6.902;2023-05-01T02:38:41;100801.06;;;9.46;100.00
4836;BME280;66719;51.226;6.902;2023-05-01T02:41:08;100792.25;;;9.53;100.00
4836;BME280;66719;51.226;6.902;2023-05-01T02:43:37;100796.69;;;9.47;100.00
4836;BME280;66719;51.226;6.902;2023-05-01T02:46:06;100794.94;;;9.49;100.00
4836;BME280;66719;51.226;6.902;2023-05-01T02:48:36;100790.56;;;9.51;100.00
4836;BME280;66719;51.226;6.902;2023-05-01T02:51:03;100785.31;;;9.52;100.00
4836;BME280;66719;51.226;6.902;2023-05-01T02:53:31;100783.69;;;9.44;100.00
4836;BME280;66719;51.226;6.902;2023-05-01T02:55:58;100776.69;;;9.46;100.00
4836;BME280;66719;51.226;6.902;2023-05-01T02:58:24;100776.69;;;9.46;100.00
4836;BME280;66719;51.226;6.902;2023-05-01T03:00:51;100772.38;;;9.43;100.00
4836;BME280;66719;51.226;6.902;2023-05-01T03:03:17;100768.88;;;9.43;100.00
4836;BME280;66719;51.226;6.902;2023-05-01T03:05:44;100773.25;;;9.42;100.00
4836;BME280;66719;51.226;6.902;2023-05-01T03:08:10;100767.97;;;9.48;100.00
4836;BME280;66719;51.226;6.902;2023-05-01T03:10:41;100767.94;;;9.47;100.00
4836;BME280;66719;51.226;6.902;2023-05-01T03:13:08;100759.31;;;9.43;100.00
4836;BME280;66719;51.226;6.902;2023-05-01T03:15:37;100757.75;;;9.30;100.00
4836;BME280;66719;51.226;6.902;2023-05-01T03:18:04;100763.94;;;9.21;100.00
4836;BME280;66719;51.226;6.902;2023-05-01T03:20:31;100758.75;;;9.18;100.00
4836;BME280;66719;51.226;6.902;2023-05-01T03:22:57;100761.34;;;9.21;100.00
4836;BME280;66719;51.226;6.902;2023-05-01T03:25:24;100750.03;;;9.19;100.00
4836;BME280;66719;51.226;6.902;2023-05-01T03:27:51;100742.13;;;9.25;100.00
4836;BME280;66719;51.226;6.902;2023-05-01T03:30:20;100742.19;;;9.19;100.00
4836;BME280;66719;51.226;6.902;2023-05-01T03:32:46;100741.50;;;9.06;100.00
4836;BME280;66719;51.226;6.902;2023-05-01T03:35:13;100738.88;;;9.06;100.00
4836;BME280;66719;51.226;6.902;2023-05-01T03:37:39;100737.06;;;9.12;100.00
4836;BME280;66719;51.226;6.902;2023-05-01T03:40:07;100737.06;;;9.13;100.00
4836;BME280;66719;51.226;6.902;2023-05-01T03:42:33;100731.06;;;9.05;100.00
4836;BME280;66719;51.226;6.902;2023-05-01T03:45:00;100731.91;;;9.07;100.00
4836;BME280;66719;51.226;6.902;2023-05-01T03:47:26;100727.50;;;9.11;100.00
4836;BME280;66719;51.226;6.902;2023-05-01T03:49:53;100731.06;;;9.05;100.00
4836;BME280;66719;51.226;6.902;2023-05-01T03:52:20;100731.09;;;9.02;100.00
4836;BME280;66719;51.226;6.902;2023-05-01T03:54:47;100732.81;;;9.03;100.00
4836;BME280;66719;51.226;6.902;2023-05-01T03:57:15;100731.19;;;8.96;100.00
4836;BME280;66719;51.226;6.902;2023-05-01T03:59:41;100721.56;;;8.98;100.00
4836;BME280;66719;51.226;6.902;2023-05-01T04:02:09;100724.19;;;8.98;100.00
4836;BME280;66719;51.226;6.902;2023-05-01T04:04:35;100726.03;;;8.90;100.00
4836;BME280;66719;51.226;6.902;2023-05-01T04:07:02;100721.59;;;8.96;100.00
4836;BME280;66719;51.226;6.902;2023-05-01T04:09:29;100720.78;;;8.90;100.00
4836;BME280;66719;51.226;6.902;2023-05-01T04:11:56;100713.78;;;8.95;100.00
4836;BME280;66719;51.226;6.902;2023-05-01T04:14:22;100712.00;;;8.98;100.00
4836;BME280;66719;51.226;6.902;2023-05-01T04:16:49;100716.41;;;8.92;100.00
4836;BME280;66719;51.226;6.902;2023-05-01T04:19:16;100715.63;;;8.85;100.00
4836;BME280;66719;51.226;6.902;2023-05-01T04:21:43;100713.06;;;8.82;100.00
4836;BME280;66719;51.226;6.902;2023-05-01T04:24:09;100714.69;;;8.91;100.00
4836;BME280;66719;51.226;6.902;2023-05-01T04:26:36;100713.00;;;8.87;100.00
4836;BME280;66719;51.226;6.902;2023-05-01T04:29:04;100708.63;;;8.89;100.00
4836;BME280;66719;51.226;6.902;2023-05-01T04:31:30;100706.03;;;8.89;100.00
4836;BME280;66719;51.226;6.902;2023-05-01T04:33:57;100707.81;;;8.82;100.00
4836;BME280;66719;51.226;6.902;2023-05-01T04:36:23;100706.03;;;8.86;100.00
4836;BME280;66719;51.226;6.902;2023-05-01T04:38:50;100713.00;;;8.87;100.00
4836;BME280;66719;51.226;6.902;2023-05-01T04:41:16;100708.66;;;8.86;100.00
4836;BME280;66719;51.226;6.902;2023-05-01T04:43:43;100706.84;;;8.91;100.00
4836;BME280;66719;51.226;6.902;2023-05-01T04:46:09;100704.13;;;9.00;100.00
4836;BME280;66719;51.226;6.902;2023-05-01T04:48:36;100701.50;;;9.01;100.00
4836;BME280;66719;51.226;6.902;2023-05-01T04:51:03;100707.47;;;9.11;100.00
4836;BME280;66719;51.226;6.902;2023-05-01T04:53:29;100708.38;;;9.09;100.00
4836;BME280;66719;51.226;6.902;2023-05-01T04:55:57;100705.63;;;9.19;100.00
4836;BME280;66719;51.226;6.902;2023-05-01T04:58:23;100697.75;;;9.22;100.00
4836;BME280;66719;51.226;6.902;2023-05-01T05:00:50;100704.78;;;9.17;100.00
4836;BME280;66719;51.226;6.902;2023-05-01T05:03:16;100697.75;;;9.22;100.00
4836;BME280;66719;51.226;6.902;2023-05-01T05:05:45;100703.78;;;9.26;100.00
4836;BME280;66719;51.226;6.902;2023-05-01T05:08:12;100698.47;;;9.33;100.00
4836;BME280;66719;51.226;6.902;2023-05-01T05:10:38;100702.81;;;9.34;100.00
4836;BME280;66719;51.226;6.902;2023-05-01T05:13:04;100708.00;;;9.36;100.00
4836;BME280;66719;51.226;6.902;2023-05-01T05:15:31;100707.16;;;9.34;100.00
4836;BME280;66719;51.226;6.902;2023-05-01T05:17:57;100706.31;;;9.33;100.00
4836;BME280;66719;51.226;6.902;2023-05-01T05:20:24;100708.06;;;9.33;100.00
4836;BME280;66719;51.226;6.902;2023-05-01T05:22:51;100710.72;;;9.30;100.00
4836;BME280;66719;51.226;6.902;2023-05-01T05:25:18;100701.06;;;9.35;100.00
4836;BME280;66719;51.226;6.902;2023-05-01T05:27:44;100708.81;;;9.41;100.00
4836;BME280;66719;51.226;6.902;2023-05-01T05:30:11;100706.16;;;9.44;100.00
4836;BME280;66719;51.226;6.902;2023-05-01T05:32:37;100708.78;;;9.43;100.00
4836;BME280;66719;51.226;6.902;2023-05-01T05:35:04;100709.63;;;9.45;100.00
4836;BME280;66719;51.226;6.902;2023-05-01T05:37:31;100708.63;;;9.53;100.00
4836;BME280;66719;51.226;6.902;2023-05-01T05:39:58;100702.53;;;9.53;100.00
4836;BME280;66719;51.226;6.902;2023-05-01T05:42:24;100704.13;;;9.63;100.00
4836;BME280;66719;51.226;6.902;2023-05-01T05:44:51;100708.41;;;9.69;100.00
4836;BME280;66719;51.226;6.902;2023-05-01T05:47:18;100698.66;;;9.78;100.00
4836;BME280;66719;51.226;6.902;2023-05-01T05:49:44;100707.19;;;9.89;100.00
4836;BME280;66719;51.226;6.902;2023-05-01T05:52:11;100702.72;;;9.98;100.00
4836;BME280;66719;51.226;6.902;2023-05-01T05:54:37;100705.13;;;10.10;100.00
4836;BME280;66719;51.226;6.902;2023-05-01T05:57:04;100703.19;;;10.21;100.00
4836;BME280;66719;51.226;6.902;2023-05-01T05:59:30;100710.88;;;10.32;100.00
4836;BME280;66719;51.226;6.902;2023-05-01T06:01:57;100698.47;;;10.41;100.00
4836;BME280;66719;51.226;6.902;2023-05-01T06:04:24;100704.44;;;10.50;100.00
4836;BME280;66719;51.226;6.902;2023-05-01T06:06:51;100692.16;;;10.55;100.00
4836;BME280;66719;51.226;6.902;2023-05-01T06:09:17;100693.72;;;10.63;100.00
4836;BME280;66719;51.226;6.902;2023-05-01T06:11:44;100695.19;;;10.76;100.00
4836;BME280;66719;51.226;6.902;2023-05-01T06:14:11;100703.69;;;10.89;100.00
4836;BME280;66719;51.226;6.902;2023-05-01T06:16:37;100698.22;;;11.00;100.00
4836;BME280;66719;51.226;6.902;2023-05-01T06:19:04;100701.50;;;11.10;100.00
4836;BME280;66719;51.226;6.902;2023-05-01T06:21:31;100700.41;;;11.20;100.00
4836;BME280;66719;51.226;6.902;2023-05-01T06:23:58;100700.22;;;11.29;100.00
4836;BME280;66719;51.226;6.902;2023-05-01T06:26:25;100695.63;;;11.40;100.00
4836;BME280;66719;51.226;6.902;2023-05-01T06:28:52;100694.59;;;11.47;100.00
4836;BME280;66719;51.226;6.902;2023-05-01T06:31:19;100692.56;;;11.58;100.00
4836;BME280;66719;51.226;6.902;2023-05-01T06:33:46;100695.78;;;11.70;100.00
4836;BME280;66719;51.226;6.902;2023-05-01T06:36:13;100695.56;;;11.79;100.00
4836;BME280;66719;51.226;6.902;2023-05-01T06:38:39;100698.81;;;11.90;100.00
4836;BME280;66719;51.226;6.902;2023-05-01T06:41:07;100698.63;;;11.98;100.00
4836;BME280;66719;51.226;6.902;2023-05-01T06:43:33;100689.75;;;12.03;100.00
4836;BME280;66719;51.226;6.902;2023-05-01T06:46:00;100689.56;;;12.11;100.00
4836;BME280;66719;51.226;6.902;2023-05-01T06:48:26;100689.53;;;12.12;100.00
4836;BME280;66719;51.226;6.902;2023-05-01T06:50:54;100699.03;;;12.18;100.00
4836;BME280;66719;51.226;6.902;2023-05-01T06:53:21;100691.88;;;12.23;100.00
4836;BME280;66719;51.226;6.902;2023-05-01T06:55:47;100682.06;;;12.30;100.00
4836;BME280;66719;51.226;6.902;2023-05-01T06:58:14;100695.16;;;12.31;100.00
4836;BME280;66719;51.226;6.902;2023-05-01T07:00:49;100683.59;;;12.38;100.00
4836;BME280;66719;51.226;6.902;2023-05-01T07:03:16;100683.50;;;12.41;100.00
4836;BME280;66719;51.226;6.902;2023-05-01T07:05:42;100692.09;;;12.48;100.00
4836;BME280;66719;51.226;6.902;2023-05-01T07:08:09;100687.44;;;12.58;100.00
4836;BME280;66719;51.226;6.902;2023-05-01T07:10:36;100695.25;;;12.61;100.00
4836;BME280;66719;51.226;6.902;2023-05-01T07:13:05;100690.78;;;12.64;98.67
4836;BME280;66719;51.226;6.902;2023-05-01T07:15:31;100690.66;;;12.67;96.14
4836;BME280;66719;51.226;6.902;2023-05-01T07:17:59;100688.84;;;12.71;96.45
4836;BME280;66719;51.226;6.902;2023-05-01T07:20:28;100680.06;;;12.72;95.96
4836;BME280;66719;51.226;6.902;2023-05-01T07:22:55;100689.53;;;12.78;96.41
4836;BME280;66719;51.226;6.902;2023-05-01T07:25:21;100682.47;;;12.80;98.96
4836;BME280;66719;51.226;6.902;2023-05-01T07:27:48;100685.84;;;12.83;99.81
4836;BME280;66719;51.226;6.902;2023-05-01T07:30:14;100686.66;;;12.87;100.00
4836;BME280;66719;51.226;6.902;2023-05-01T07:32:41;100676.91;;;12.90;100.00
4836;BME280;66719;51.226;6.902;2023-05-01T07:35:07;100681.13;;;12.96;99.11
4836;BME280;66719;51.226;6.902;2023-05-01T07:37:34;100679.16;;;13.02;99.90
4836;BME280;66719;51.226;6.902;2023-05-01T07:40:00;100683.25;;;13.13;96.71
4836;BME280;66719;51.226;6.902;2023-05-01T07:42:27;100682.19;;;13.20;95.80
4836;BME280;66719;51.226;6.902;2023-05-01T07:44:54;100683.78;;;13.25;94.50
4836;BME280;66719;51.226;6.902;2023-05-01T07:47:20;100679.25;;;13.29;95.86
4836;BME280;66719;51.226;6.902;2023-05-01T07:49:47;100675.50;;;13.38;96.86
4836;BME280;66719;51.226;6.902;2023-05-01T07:52:14;100667.34;;;13.47;94.23
4836;BME280;66719;51.226;6.902;2023-05-01T07:54:41;100675.13;;;13.50;92.46
4836;BME280;66719;51.226;6.902;2023-05-01T07:57:08;100667.94;;;13.55;94.21
4836;BME280;66719;51.226;6.902;2023-05-01T07:59:34;100675.75;;;13.58;93.26
4836;BME280;66719;51.226;6.902;2023-05-01T08:02:01;100676.66;;;13.57;91.57
4836;BME280;66719;51.226;6.902;2023-05-01T08:04:27;100672.97;;;13.63;91.35
4836;BME280;66719;51.226;6.902;2023-05-01T08:06:54;100669.47;;;13.62;92.32
4836;BME280;66719;51.226;6.902;2023-05-01T08:09:21;100663.41;;;13.60;91.35
4836;BME280;66719;51.226;6.902;2023-05-01T08:11:48;100668.31;;;13.71;92.45
4836;BME280;66719;51.226;6.902;2023-05-01T08:14:14;100672.34;;;13.82;89.88
4836;BME280;66719;51.226;6.902;2023-05-01T08:16:43;100666.78;;;13.92;89.44
4836;BME280;66719;51.226;6.902;2023-05-01T08:19:09;100672.84;;;13.94;88.55
4836;BME280;66719;51.226;6.902;2023-05-01T08:21:36;100667.56;;;13.94;88.01
4836;BME280;66719;51.226;6.902;2023-05-01T08:24:02;100667.16;;;14.06;88.39
4836;BME280;66719;51.226;6.902;2023-05-01T08:26:29;100654.63;;;14.12;86.06
4836;BME280;66719;51.226;6.902;2023-05-01T08:28:56;100660.44;;;14.22;86.01
4836;BME280;66719;51.226;6.902;2023-05-01T08:31:22;100667.09;;;14.32;83.50
4836;BME280;66719;51.226;6.902;2023-05-01T08:33:50;100671.09;;;14.46;84.12
4836;BME280;66719;51.226;6.902;2023-05-01T08:36:17;100666.59;;;14.48;82.77
4836;BME280;66719;51.226;6.902;2023-05-01T08:38:46;100668.25;;;14.52;83.84
4836;BME280;66719;51.226;6.902;2023-05-01T08:41:20;100664.28;;;14.63;84.94
4836;BME280;66719;51.226;6.902;2023-05-01T08:43:47;100664.94;;;14.70;84.54
4836;BME280;66719;51.226;6.902;2023-05-01T08:46:42;100659.75;;;14.67;83.36
4836;BME280;66719;51.226;6.902;2023-05-01T08:49:13;100656.91;;;14.73;86.04
4836;BME280;66719;51.226;6.902;2023-05-01T08:51:41;100664.66;;;14.78;82.98
4836;BME280;66719;51.226;6.902;2023-05-01T08:54:10;100662.97;;;14.75;82.04
4836;BME280;66719;51.226;6.902;2023-05-01T08:56:37;100658.53;;;14.77;82.10
4836;BME280;66719;51.226;6.902;2023-05-01T08:59:04;100661.84;;;14.82;83.92
4836;BME280;66719;51.226;6.902;2023-05-01T09:01:32;100660.69;;;14.89;81.71
4836;BME280;66719;51.226;6.902;2023-05-01T09:04:01;100665.97;;;14.89;82.27
4836;BME280;66719;51.226;6.902;2023-05-01T09:06:28;100657.25;;;14.87;80.69
4836;BME280;66719;51.226;6.902;2023-05-01T09:08:55;100655.22;;;14.94;83.83
4836;BME280;66719;51.226;6.902;2023-05-01T09:11:22;100659.56;;;14.96;82.01
4836;BME280;66719;51.226;6.902;2023-05-01T09:13:50;100667.47;;;14.96;82.80
4836;BME280;66719;51.226;6.902;2023-05-01T09:16:17;100668.31;;;14.97;82.28
4836;BME280;66719;51.226;6.902;2023-05-01T09:18:44;100664.06;;;14.93;80.62
4836;BME280;66719;51.226;6.902;2023-05-01T09:21:11;100661.50;;;14.91;81.95
4836;BME280;66719;51.226;6.902;2023-05-01T09:23:38;100658.84;;;14.91;83.16
4836;BME280;66719;51.226;6.902;2023-05-01T09:26:06;100657.94;;;14.92;82.53
4836;BME280;66719;51.226;6.902;2023-05-01T09:28:44;100654.16;;;14.99;81.24
4836;BME280;66719;51.226;6.902;2023-05-01T09:31:28;100659.56;;;14.96;80.81
4836;BME280;66719;51.226;6.902;2023-05-01T09:36:25;100652.28;;;15.03;82.53
4836;BME280;66719;51.226;6.902;2023-05-01T09:38:53;100654.94;;;15.02;83.56
4836;BME280;66719;51.226;6.902;2023-05-01T09:41:20;100654.72;;;15.08;82.38
4836;BME280;66719;51.226;6.902;2023-05-01T09:43:55;100650.31;;;15.08;81.44
4836;BME280;66719;51.226;6.902;2023-05-01T09:46:23;100648.97;;;15.20;82.19
4836;BME280;66719;51.226;6.902;2023-05-01T09:48:55;100649.06;;;15.40;81.51
4836;BME280;66719;51.226;6.902;2023-05-01T09:51:34;100646.13;;;15.70;78.94
4836;BME280;66719;51.226;6.902;2023-05-01T09:54:02;100638.19;;;15.70;77.29
4836;BME280;66719;51.226;6.902;2023-05-01T09:56:31;100653.00;;;15.74;79.00
4836;BME280;66719;51.226;6.902;2023-05-01T09:59:14;100646.97;;;15.70;78.35
4836;BME280;66719;51.226;6.902;2023-05-01T10:01:43;100647.59;;;15.77;78.34
4836;BME280;66719;51.226;6.902;2023-05-01T10:04:11;100647.94;;;15.90;76.66
4836;BME280;66719;51.226;6.902;2023-05-01T10:06:39;100641.53;;;15.95;75.92
4836;BME280;66719;51.226;6.902;2023-05-01T10:09:06;100643.53;;;15.90;75.95
4836;BME280;66719;51.226;6.902;2023-05-01T10:11:50;100634.53;;;15.94;77.85
4836;BME280;66719;51.226;6.902;2023-05-01T10:14:18;100634.16;;;16.03;79.64
4836;BME280;66719;51.226;6.902;2023-05-01T10:16:45;100638.03;;;16.15;78.75
4836;BME280;66719;51.226;6.902;2023-05-01T10:19:13;100636.41;;;16.13;76.59
4836;BME280;66719;51.226;6.902;2023-05-01T10:21:42;100634.00;;;16.06;76.47
4836;BME280;66719;51.226;6.902;2023-05-01T10:24:08;100641.50;;;16.17;76.60
4836;BME280;66719;51.226;6.902;2023-05-01T10:26:36;100636.22;;;16.17;75.67
4836;BME280;66719;51.226;6.902;2023-05-01T10:29:03;100637.59;;;16.26;76.21
4836;BME280;66719;51.226;6.902;2023-05-01T10:31:29;100632.31;;;16.26;74.52
4836;BME280;66719;51.226;6.902;2023-05-01T10:33:59;100630.59;;;16.25;74.76
4836;BME280;66719;51.226;6.902;2023-05-01T10:36:36;100633.03;;;16.29;74.16
4836;BME280;66719;51.226;6.902;2023-05-01T10:39:05;100627.81;;;16.28;74.56
4836;BME280;66719;51.226;6.902;2023-05-01T10:44:25;100620.06;;;16.23;76.58
4836;BME280;66719;51.226;6.902;2023-05-01T10:46:53;100621.09;;;16.21;77.59
4836;BME280;66719;51.226;6.902;2023-05-01T10:49:20;100621.41;;;16.33;74.57
4836;BME280;66719;51.226;6.902;2023-05-01T10:54:27;100613.19;;;16.60;72.63
4836;BME280;66719;51.226;6.902;2023-05-01T10:56:55;100604.88;;;16.67;72.19
4836;BME280;66719;51.226;6.902;2023-05-01T10:59:22;100613.31;;;16.77;73.23
4836;BME280;66719;51.226;6.902;2023-05-01T11:01:49;100606.50;;;16.72;72.07
4836;BME280;66719;51.226;6.902;2023-05-01T11:09:38;100610.44;;;17.01;68.37
4836;BME280;66719;51.226;6.902;2023-05-01T11:12:08;100599.50;;;17.08;67.04
4836;BME280;66719;51.226;6.902;2023-05-01T11:17:43;100597.78;;;17.07;65.00
4836;BME280;66719;51.226;6.902;2023-05-01T11:20:12;100605.94;;;17.21;65.53
4836;BME280;66719;51.226;6.902;2023-05-01T11:22:58;100601.50;;;17.22;66.44
4836;BME280;66719;51.226;6.902;2023-05-01T11:25:27;100598.16;;;17.36;64.68
4836;BME280;66719;51.226;6.902;2023-05-01T11:27:55;100607.22;;;17.49;63.99
4836;BME280;66719;51.226;6.902;2023-05-01T11:30:23;100590.78;;;17.42;63.38
4836;BME280;66719;51.226;6.902;2023-05-01T11:32:50;100596.00;;;17.44;64.09
4836;BME280;66719;51.226;6.902;2023-05-01T11:35:22;100595.38;;;17.39;63.31
4836;BME280;66719;51.226;6.902;2023-05-01T11:37:49;100591.88;;;17.38;64.58
4836;BME280;66719;51.226;6.902;2023-05-01T11:40:24;100591.19;;;17.52;64.23
4836;BME280;66719;51.226;6.902;2023-05-01T11:42:59;100582.22;;;17.55;64.30
4836;BME280;66719;51.226;6.902;2023-05-01T11:45:26;100593.94;;;17.68;61.56
4836;BME280;66719;51.226;6.902;2023-05-01T11:47:52;100583.69;;;17.79;61.70
4836;BME280;66719;51.226;6.902;2023-05-01T11:50:19;100572.38;;;17.75;59.77
4836;BME280;66719;51.226;6.902;2023-05-01T11:52:51;100582.97;;;17.75;60.47
4836;BME280;66719;51.226;6.902;2023-05-01T11:55:20;100579.56;;;17.73;62.17
4836;BME280;66719;51.226;6.902;2023-05-01T11:57:56;100568.59;;;17.81;60.85
4836;BME280;66719;51.226;6.902;2023-05-01T12:00:33;100576.81;;;18.10;60.59
4836;BME280;66719;51.226;6.902;2023-05-01T12:03:04;100568.28;;;18.20;58.32
4836;BME280;66719;51.226;6.902;2023-05-01T12:05:36;100565.69;;;18.36;59.94
4836;BME280;66719;51.226;6.902;2023-05-01T12:08:16;100569.69;;;18.60;60.02
4836;BME280;66719;51.226;6.902;2023-05-01T12:10:54;100568.88;;;18.91;56.75
4836;BME280;66719;51.226;6.902;2023-05-01T12:13:23;100566.31;;;19.22;52.91
4836;BME280;66719;51.226;6.902;2023-05-01T12:15:52;100566.22;;;19.23;51.87
4836;BME280;66719;51.226;6.902;2023-05-01T12:18:20;100567.13;;;19.38;54.79
4836;BME280;66719;51.226;6.902;2023-05-01T12:20:48;100558.19;;;19.55;50.87
4836;BME280;66719;51.226;6.902;2023-05-01T12:23:18;100562.50;;;19.41;49.62
4836;BME280;66719;51.226;6.902;2023-05-01T12:25:45;100568.06;;;19.37;51.72
4836;BME280;66719;51.226;6.902;2023-05-01T12:28:16;100560.03;;;19.23;53.33
4836;BME280;66719;51.226;6.902;2023-05-01T12:30:46;100565.78;;;19.15;50.90
4836;BME280;66719;51.226;6.902;2023-05-01T12:33:22;100560.66;;;18.80;49.56
4836;BME280;66719;51.226;6.902;2023-05-01T12:35:49;100562.72;;;18.58;50.19
4836;BME280;66719;51.226;6.902;2023-05-01T12:38:20;100556.22;;;18.48;47.64
4836;BME280;66719;51.226;6.902;2023-05-01T12:40:55;100559.72;;;18.48;48.47
4836;BME280;66719;51.226;6.902;2023-05-01T12:43:31;100561.25;;;18.36;47.80
4836;BME280;66719;51.226;6.902;2023-05-01T12:45:58;100548.97;;;18.18;49.28
4836;BME280;66719;51.226;6.902;2023-05-01T12:48:25;100548.59;;;18.08;49.56
4836;BME280;66719;51.226;6.902;2023-05-01T12:50:53;100547.28;;;18.00;53.58
4836;BME280;66719;51.226;6.902;2023-05-01T12:53:26;100545.97;;;17.91;53.79
4836;BME280;66719;51.226;6.902;2023-05-01T12:55:55;100549.47;;;17.92;52.45
4836;BME280;66719;51.226;6.902;2023-05-01T12:58:23;100545.88;;;17.93;53.98
4836;BME280;66719;51.226;6.902;2023-05-01T13:00:54;100546.56;;;17.96;53.91
4836;BME280;66719;51.226;6.902;2023-05-01T13:03:27;100549.31;;;17.95;53.37
4836;BME280;66719;51.226;6.902;2023-05-01T13:05:56;100543.47;;;17.88;52.59
4836;BME280;66719;51.226;6.902;2023-05-01T13:08:31;100544.66;;;17.83;53.39
4836;BME280;66719;51.226;6.902;2023-05-01T13:11:01;100543.63;;;17.85;53.48
4836;BME280;66719;51.226;6.902;2023-05-01T13:13:34;100544.09;;;17.76;52.23
4836;BME280;66719;51.226;6.902;2023-05-01T13:18:32;100547.19;;;17.67;53.64
4836;BME280;66719;51.226;6.902;2023-05-01T13:21:07;100551.84;;;17.62;54.41
4836;BME280;66719;51.226;6.902;2023-05-01T13:23:38;100544.19;;;17.74;55.21
4836;BME280;66719;51.226;6.902;2023-05-01T13:26:06;100547.53;;;17.78;59.44
4836;BME280;66719;51.226;6.902;2023-05-01T13:28:43;100553.84;;;17.75;60.91
4836;BME280;66719;51.226;6.902;2023-05-01T13:31:13;100558.66;;;17.67;61.73
4836;BME280;66719;51.226;6.902;2023-05-01T13:33:41;100555.44;;;17.61;62.25
4836;BME280;66719;51.226;6.902;2023-05-01T13:36:12;100571.50;;;17.58;61.34
4836;BME280;66719;51.226;6.902;2023-05-01T13:38:54;100571.78;;;17.51;61.31